createdAt,value
2023-01-29T00:02:07.470Z,6.43
2023-01-29T00:04:35.427Z,6.93
2023-01-29T00:07:03.394Z,7.50
2023-01-29T00:09:32.069Z,6.70
2023-01-29T00:12:00.039Z,6.33
2023-01-29T00:14:28.688Z,6.57
2023-01-29T00:16:56.690Z,6.63
2023-01-29T00:19:26.034Z,6.17
2023-01-29T00:21:53.914Z,6.77
2023-01-29T00:24:22.325Z,7.30
2023-01-29T00:26:50.536Z,7.30
2023-01-29T00:29:18.662Z,6.47
2023-01-29T00:31:47.336Z,6.70
2023-01-29T00:34:15.361Z,6.23
2023-01-29T00:36:45.663Z,6.40
2023-01-29T00:39:13.563Z,6.73
2023-01-29T00:41:58.890Z,6.30
2023-01-29T00:44:44.061Z,6.73
2023-01-29T00:47:30.922Z,6.17
2023-01-29T00:49:59.149Z,6.00
2023-01-29T00:52:28.867Z,5.80
2023-01-29T00:54:58.480Z,6.10
2023-01-29T00:57:27.679Z,5.97
2023-01-29T00:59:55.604Z,6.27
2023-01-29T01:02:41.693Z,6.80
2023-01-29T01:05:18.015Z,6.13
2023-01-29T01:07:48.490Z,6.23
2023-01-29T01:10:21.262Z,6.37
2023-01-29T01:12:51.754Z,6.10
2023-01-29T01:15:19.995Z,6.13
2023-01-29T01:17:48.951Z,6.37
2023-01-29T01:20:17.159Z,6.57
2023-01-29T01:22:45.303Z,6.67
2023-01-29T01:25:14.673Z,6.00
2023-01-29T01:27:42.773Z,5.87
2023-01-29T01:30:12.628Z,6.17
2023-01-29T01:32:41.331Z,6.27
2023-01-29T01:35:10.348Z,6.13
2023-01-29T01:37:38.772Z,4.93
2023-01-29T01:40:12.858Z,6.33
2023-01-29T01:42:42.263Z,5.70
2023-01-29T01:45:19.991Z,6.07
2023-01-29T01:47:49.500Z,5.57
2023-01-29T01:50:19.985Z,7.07
2023-01-29T01:52:52.024Z,5.63
2023-01-29T01:55:22.398Z,6.33
2023-01-29T01:57:54.411Z,4.93
2023-01-29T02:00:23.633Z,6.60
2023-01-29T02:03:09.272Z,5.77
2023-01-29T02:05:55.491Z,6.37
2023-01-29T02:08:45.979Z,5.63
2023-01-29T02:11:14.553Z,6.33
2023-01-29T02:13:43.879Z,6.40
2023-01-29T02:16:11.760Z,6.43
2023-01-29T02:18:39.726Z,5.63
2023-01-29T02:21:25.420Z,6.53
2023-01-29T02:24:17.375Z,5.83
2023-01-29T02:26:56.933Z,5.50
2023-01-29T02:29:34.511Z,6.03
2023-01-29T02:32:14.368Z,6.03
2023-01-29T02:35:06.164Z,6.10
2023-01-29T02:37:39.498Z,6.93
2023-01-29T02:40:15.603Z,6.00
2023-01-29T02:42:50.191Z,6.27
2023-01-29T02:45:20.748Z,6.43
2023-01-29T02:47:53.690Z,5.67
2023-01-29T02:50:23.607Z,6.13
2023-01-29T02:52:59.469Z,6.20
2023-01-29T02:55:31.994Z,5.93
2023-01-29T02:58:04.687Z,5.93
2023-01-29T03:00:37.896Z,6.27
2023-01-29T03:03:10.492Z,6.63
2023-01-29T03:05:45.103Z,6.60
2023-01-29T03:08:16.778Z,6.33
2023-01-29T03:10:49.355Z,6.13
2023-01-29T03:13:20.580Z,5.90
2023-01-29T03:16:01.494Z,6.27
2023-01-29T03:18:32.431Z,6.53
2023-01-29T03:21:24.956Z,5.70
2023-01-29T03:24:11.379Z,6.47
2023-01-29T03:26:57.129Z,6.57
2023-01-29T03:29:42.200Z,6.50
2023-01-29T03:32:12.205Z,5.73
2023-01-29T03:34:43.704Z,6.53
2023-01-29T03:37:16.004Z,6.17
2023-01-29T03:39:43.982Z,6.47
2023-01-29T03:42:17.121Z,6.40
2023-01-29T03:44:54.726Z,6.13
2023-01-29T03:47:27.331Z,6.50
2023-01-29T03:50:00.249Z,6.20
2023-01-29T03:52:30.411Z,6.87
2023-01-29T03:55:01.994Z,6.27
2023-01-29T03:57:35.277Z,6.70
2023-01-29T04:00:08.514Z,6.27
2023-01-29T04:02:43.681Z,6.27
2023-01-29T04:05:15.409Z,6.20
2023-01-29T04:07:45.240Z,5.47
2023-01-29T04:10:17.238Z,6.20
2023-01-29T04:12:48.978Z,6.30
2023-01-29T04:15:17.791Z,6.00
2023-01-29T04:17:51.706Z,6.43
2023-01-29T04:20:19.891Z,5.87
2023-01-29T04:22:49.512Z,6.63
2023-01-29T04:25:26.524Z,6.10
2023-01-29T04:27:59.446Z,6.57
2023-01-29T04:30:34.619Z,6.40
2023-01-29T04:33:12.683Z,7.07
2023-01-29T04:35:49.236Z,6.03
2023-01-29T04:38:33.404Z,7.17
2023-01-29T04:41:06.840Z,6.90
2023-01-29T04:43:40.138Z,6.67
2023-01-29T04:46:13.996Z,6.23
2023-01-29T04:48:51.471Z,7.07
2023-01-29T04:51:23.992Z,7.07
2023-01-29T04:53:58.373Z,7.17
2023-01-29T04:56:32.591Z,7.07
2023-01-29T04:59:03.470Z,6.63
2023-01-29T05:01:33.266Z,6.07
2023-01-29T05:04:05.861Z,6.80
2023-01-29T05:06:33.809Z,7.40
2023-01-29T05:09:02.277Z,6.00
2023-01-29T05:11:32.067Z,7.60
2023-01-29T05:14:00.279Z,6.43
2023-01-29T05:16:30.052Z,9.03
2023-01-29T05:18:58.034Z,24.60
2023-01-29T05:21:28.373Z,11.80
2023-01-29T05:24:10.609Z,7.80
2023-01-29T05:26:56.044Z,8.07
2023-01-29T05:29:24.015Z,8.50
2023-01-29T05:31:51.952Z,9.03
2023-01-29T05:34:19.966Z,7.90
2023-01-29T05:36:49.243Z,7.83
2023-01-29T05:39:17.216Z,7.20
2023-01-29T05:41:45.675Z,7.33
2023-01-29T05:44:14.025Z,8.10
2023-01-29T05:46:42.014Z,6.70
2023-01-29T05:49:09.967Z,7.27
2023-01-29T05:51:37.903Z,6.63
2023-01-29T05:54:07.249Z,6.93
2023-01-29T05:56:35.123Z,6.30
2023-01-29T05:59:03.040Z,6.30
2023-01-29T06:01:30.969Z,7.00
2023-01-29T06:03:58.953Z,6.57
2023-01-29T06:06:26.851Z,7.43
2023-01-29T06:08:54.804Z,7.30
2023-01-29T06:11:24.171Z,6.80
2023-01-29T06:13:52.119Z,7.23
2023-01-29T06:16:20.133Z,6.87
2023-01-29T06:18:48.026Z,7.13
2023-01-29T06:21:16.250Z,7.30
2023-01-29T06:23:44.829Z,6.07
2023-01-29T06:26:13.936Z,7.00
2023-01-29T06:28:43.895Z,7.50
2023-01-29T06:31:30.397Z,8.17
2023-01-29T06:34:00.108Z,6.73
2023-01-29T06:36:28.125Z,7.10
2023-01-29T06:38:56.031Z,8.20
2023-01-29T06:41:25.590Z,7.57
2023-01-29T06:43:55.037Z,6.23
2023-01-29T06:46:22.920Z,6.77
2023-01-29T06:48:50.882Z,7.43
2023-01-29T06:51:18.789Z,7.97
2023-01-29T06:53:47.033Z,7.50
2023-01-29T06:56:15.014Z,7.90
2023-01-29T06:58:43.610Z,8.63
2023-01-29T07:01:25.465Z,8.60
2023-01-29T07:04:01.152Z,8.33
2023-01-29T07:06:29.956Z,6.70
2023-01-29T07:08:58.058Z,8.03
2023-01-29T07:11:25.986Z,9.23
2023-01-29T07:13:53.891Z,8.53
2023-01-29T07:16:23.528Z,9.67
2023-01-29T07:18:51.538Z,8.87
2023-01-29T07:21:19.509Z,8.67
2023-01-29T07:23:47.422Z,8.40
2023-01-29T07:26:15.400Z,7.53
2023-01-29T07:28:43.324Z,8.50
2023-01-29T07:31:13.874Z,8.90
2023-01-29T07:33:44.377Z,9.03
2023-01-29T07:36:13.008Z,8.20
2023-01-29T07:38:40.946Z,7.73
2023-01-29T07:41:08.942Z,7.83
2023-01-29T07:43:36.980Z,8.87
2023-01-29T07:46:05.739Z,8.80
2023-01-29T07:48:33.834Z,9.13
2023-01-29T07:51:03.265Z,8.43
2023-01-29T07:53:31.860Z,9.17
2023-01-29T07:55:59.761Z,9.43
2023-01-29T07:58:27.744Z,9.90
2023-01-29T08:00:55.669Z,9.13
2023-01-29T08:03:23.626Z,9.03
2023-01-29T08:05:51.520Z,9.93
2023-01-29T08:08:20.864Z,10.33
2023-01-29T08:10:48.764Z,11.20
2023-01-29T08:13:16.668Z,10.43
2023-01-29T08:15:46.170Z,12.60
2023-01-29T08:18:14.525Z,11.50
2023-01-29T08:20:42.462Z,11.07
2023-01-29T08:23:14.915Z,10.97
2023-01-29T08:25:44.272Z,12.27
2023-01-29T08:28:12.812Z,11.23
2023-01-29T08:30:40.824Z,13.27
2023-01-29T08:33:08.838Z,11.03
2023-01-29T08:35:36.957Z,12.53
2023-01-29T08:38:05.859Z,12.50
2023-01-29T08:40:35.119Z,13.47
2023-01-29T08:43:08.754Z,12.40
2023-01-29T08:45:38.725Z,13.60
2023-01-29T08:48:07.465Z,12.30
2023-01-29T08:50:35.564Z,13.77
2023-01-29T08:53:04.896Z,13.67
2023-01-29T08:55:32.770Z,12.10
2023-01-29T08:58:00.706Z,13.27
2023-01-29T09:00:29.998Z,14.07
2023-01-29T09:02:59.547Z,13.47
2023-01-29T09:05:27.564Z,13.77
2023-01-29T09:07:57.736Z,27.60
2023-01-29T09:10:25.893Z,15.60
2023-01-29T09:12:54.001Z,22.17
2023-01-29T09:15:21.899Z,16.50
2023-01-29T09:17:51.174Z,15.60
2023-01-29T09:20:20.609Z,22.33
2023-01-29T09:22:49.412Z,14.13
2023-01-29T09:25:17.681Z,15.17
2023-01-29T09:27:45.786Z,13.63
2023-01-29T09:30:14.358Z,15.47
2023-01-29T09:32:57.555Z,14.60
2023-01-29T09:35:26.909Z,14.77
2023-01-29T09:37:54.794Z,13.40
2023-01-29T09:40:27.327Z,14.03
2023-01-29T09:42:59.378Z,14.73
2023-01-29T09:45:29.142Z,13.70
2023-01-29T09:47:59.775Z,12.97
2023-01-29T09:50:32.733Z,13.80
2023-01-29T09:53:04.707Z,14.77
2023-01-29T09:55:35.334Z,14.50
2023-01-29T09:58:07.596Z,13.97
2023-01-29T10:00:39.179Z,14.00
2023-01-29T10:03:22.470Z,14.43
2023-01-29T10:06:05.885Z,16.03
2023-01-29T10:08:56.028Z,15.33
2023-01-29T10:11:34.374Z,16.27
2023-01-29T10:14:09.167Z,17.00
2023-01-29T10:16:46.533Z,18.07
2023-01-29T10:19:39.848Z,17.37
2023-01-29T10:22:22.632Z,15.03
2023-01-29T10:24:54.032Z,16.93
2023-01-29T10:27:22.503Z,16.97
2023-01-29T10:29:52.393Z,14.60
2023-01-29T10:32:24.835Z,17.73
2023-01-29T10:34:57.653Z,15.93
2023-01-29T10:37:30.133Z,17.80
2023-01-29T10:40:00.036Z,18.03
2023-01-29T10:42:31.307Z,18.00
2023-01-29T10:45:08.413Z,13.23
2023-01-29T10:47:55.843Z,14.70
2023-01-29T10:50:33.785Z,17.07
2023-01-29T10:53:18.002Z,13.03
2023-01-29T10:55:55.259Z,15.97
2023-01-29T10:58:29.537Z,14.13
2023-01-29T11:00:57.676Z,14.47
2023-01-29T11:03:28.860Z,13.47
2023-01-29T11:06:03.056Z,13.70
2023-01-29T11:08:35.929Z,14.17
2023-01-29T11:11:09.464Z,12.27
2023-01-29T11:13:40.050Z,13.20
2023-01-29T11:16:09.789Z,12.33
2023-01-29T11:18:51.560Z,13.90
2023-01-29T11:21:19.437Z,13.97
2023-01-29T11:23:49.150Z,12.77
2023-01-29T11:26:20.816Z,13.20
2023-01-29T11:28:49.857Z,13.27
2023-01-29T11:31:23.520Z,13.93
2023-01-29T11:33:54.106Z,11.30
2023-01-29T11:36:28.432Z,11.17
2023-01-29T11:39:14.703Z,11.57
2023-01-29T11:41:44.774Z,11.60
2023-01-29T11:44:23.919Z,11.77
2023-01-29T11:46:51.878Z,13.00
2023-01-29T11:49:34.305Z,10.93
2023-01-29T11:52:04.253Z,11.70
2023-01-29T11:54:37.868Z,11.73
2023-01-29T11:57:06.026Z,12.37
2023-01-29T11:59:42.771Z,10.37
2023-01-29T12:02:24.053Z,12.43
2023-01-29T12:04:52.292Z,11.73
2023-01-29T12:07:20.354Z,10.83
2023-01-29T12:09:56.377Z,11.17
2023-01-29T12:12:33.472Z,9.80
2023-01-29T12:15:26.016Z,11.53
2023-01-29T12:18:00.489Z,8.40
2023-01-29T12:20:35.346Z,10.20
2023-01-29T12:23:10.387Z,11.27
2023-01-29T12:25:45.022Z,11.13
2023-01-29T12:28:32.676Z,12.27
2023-01-29T12:31:10.552Z,11.20
2023-01-29T12:33:44.883Z,12.47
2023-01-29T12:36:18.375Z,11.63
2023-01-29T12:38:46.520Z,11.23
2023-01-29T12:41:26.581Z,11.57
2023-01-29T12:43:57.474Z,10.53
2023-01-29T12:46:28.620Z,11.30
2023-01-29T12:48:58.816Z,12.40
2023-01-29T12:51:30.846Z,10.83
2023-01-29T12:54:02.182Z,12.70
2023-01-29T12:56:34.557Z,12.27
2023-01-29T12:59:06.859Z,11.83
2023-01-29T13:01:36.783Z,12.00
2023-01-29T13:04:08.145Z,12.70
2023-01-29T13:06:41.627Z,12.77
2023-01-29T13:09:14.319Z,12.57
2023-01-29T13:11:46.838Z,13.10
2023-01-29T13:14:20.552Z,12.07
2023-01-29T13:16:51.447Z,12.17
2023-01-29T13:19:24.574Z,12.60
2023-01-29T13:21:54.110Z,11.33
2023-01-29T13:24:24.547Z,12.00
2023-01-29T13:26:54.542Z,12.40
2023-01-29T13:29:24.509Z,11.33
2023-01-29T13:31:54.521Z,12.37
2023-01-29T13:34:24.853Z,11.63
2023-01-29T13:36:54.229Z,11.63
2023-01-29T13:39:26.416Z,12.00
2023-01-29T13:41:56.500Z,12.03
2023-01-29T13:44:27.122Z,12.20
2023-01-29T13:47:00.178Z,11.70
2023-01-29T13:49:34.881Z,11.47
2023-01-29T13:52:17.602Z,10.67
2023-01-29T13:54:52.431Z,12.20
2023-01-29T13:57:47.804Z,11.47
2023-01-29T14:00:58.675Z,12.60
2023-01-29T14:04:09.976Z,11.23
2023-01-29T14:06:50.941Z,11.43
2023-01-29T14:09:56.194Z,12.90
2023-01-29T14:12:37.867Z,10.97
2023-01-29T14:15:22.830Z,12.27
2023-01-29T14:18:15.463Z,12.63
2023-01-29T14:20:52.985Z,12.30
2023-01-29T14:23:31.430Z,12.80
2023-01-29T14:26:02.302Z,13.10
2023-01-29T14:28:33.547Z,11.03
2023-01-29T14:31:01.641Z,14.67
2023-01-29T14:33:35.223Z,23.63
2023-01-29T14:36:06.219Z,15.10
2023-01-29T14:38:34.690Z,13.43
2023-01-29T14:41:09.555Z,13.67
2023-01-29T14:43:38.887Z,12.43
2023-01-29T14:46:44.636Z,11.87
2023-01-29T14:49:12.681Z,13.00
2023-01-29T14:51:43.419Z,12.67
2023-01-29T14:54:23.931Z,13.70
2023-01-29T14:57:00.549Z,12.50
2023-01-29T14:59:34.628Z,12.90
2023-01-29T15:02:05.339Z,12.63
2023-01-29T15:04:38.029Z,12.67
2023-01-29T15:07:13.291Z,13.13
2023-01-29T15:09:45.705Z,12.73
2023-01-29T15:12:22.047Z,13.07
2023-01-29T15:15:01.331Z,11.93
2023-01-29T15:17:31.333Z,12.57
2023-01-29T15:19:59.210Z,14.23
2023-01-29T15:22:29.136Z,14.33
2023-01-29T15:25:08.538Z,11.93
2023-01-29T15:27:36.513Z,13.03
2023-01-29T15:30:08.332Z,14.23
2023-01-29T15:32:38.325Z,13.00
2023-01-29T15:35:10.202Z,14.73
2023-01-29T15:37:38.653Z,13.47
2023-01-29T15:40:15.406Z,13.83
2023-01-29T15:42:46.684Z,14.73
2023-01-29T15:45:28.721Z,13.00
2023-01-29T15:48:00.553Z,14.10
2023-01-29T15:50:29.923Z,14.73
2023-01-29T15:52:59.888Z,13.97
2023-01-29T15:55:28.705Z,13.63
2023-01-29T15:57:57.563Z,14.17
2023-01-29T16:00:29.695Z,13.70
2023-01-29T16:02:58.500Z,14.93
2023-01-29T16:05:28.833Z,12.83
2023-01-29T16:07:57.279Z,13.90
2023-01-29T16:10:26.854Z,13.90
2023-01-29T16:12:54.888Z,13.43
2023-01-29T16:15:31.567Z,14.63
2023-01-29T16:18:01.130Z,13.80
2023-01-29T16:20:38.409Z,15.23
2023-01-29T16:23:06.850Z,12.37
2023-01-29T16:25:38.957Z,13.40
2023-01-29T16:28:08.248Z,12.13
2023-01-29T16:30:38.422Z,12.60
2023-01-29T16:33:07.935Z,11.73
2023-01-29T16:35:36.525Z,12.27
2023-01-29T16:38:06.730Z,12.90
2023-01-29T16:40:37.311Z,12.10
2023-01-29T16:43:46.817Z,13.10
2023-01-29T16:46:23.430Z,14.77
2023-01-29T16:48:51.620Z,13.27
2023-01-29T16:51:25.043Z,11.87
2023-01-29T16:54:00.771Z,12.13
2023-01-29T16:56:31.569Z,10.87
2023-01-29T16:58:59.707Z,13.93
2023-01-29T17:01:30.368Z,12.20
2023-01-29T17:04:05.817Z,13.20
2023-01-29T17:06:33.898Z,13.67
2023-01-29T17:09:02.237Z,13.40
2023-01-29T17:11:34.660Z,12.40
2023-01-29T17:14:03.279Z,13.40
2023-01-29T17:16:34.295Z,12.80
2023-01-29T17:19:02.674Z,13.13
2023-01-29T17:21:30.877Z,12.73
2023-01-29T17:23:58.769Z,13.23
2023-01-29T17:26:26.957Z,11.70
2023-01-29T17:28:55.381Z,12.50
2023-01-29T17:31:23.790Z,13.60
2023-01-29T17:33:53.154Z,12.87
2023-01-29T17:36:21.147Z,11.57
2023-01-29T17:38:49.047Z,12.37
2023-01-29T17:41:20.407Z,12.37
2023-01-29T17:43:48.629Z,13.93
2023-01-29T17:46:18.356Z,13.10
2023-01-29T17:48:49.195Z,13.03
2023-01-29T17:51:19.187Z,10.37
2023-01-29T17:53:47.778Z,12.63
2023-01-29T17:56:19.585Z,13.20
2023-01-29T17:58:47.539Z,12.70
2023-01-29T18:01:15.492Z,12.23
2023-01-29T18:03:43.511Z,11.87
2023-01-29T18:06:12.779Z,13.60
2023-01-29T18:08:42.067Z,13.30
2023-01-29T18:11:12.238Z,13.67
2023-01-29T18:14:13.771Z,13.27
2023-01-29T18:16:43.430Z,12.50
2023-01-29T18:19:15.238Z,12.53
2023-01-29T18:21:43.167Z,12.63
2023-01-29T18:24:12.464Z,13.43
2023-01-29T18:29:30.267Z,13.90
2023-01-29T18:31:58.594Z,13.80
2023-01-29T18:34:26.624Z,14.27
2023-01-29T18:36:54.547Z,14.00
2023-01-29T18:39:24.022Z,13.37
2023-01-29T18:41:52.112Z,16.93
2023-01-29T18:44:20.230Z,15.47
2023-01-29T18:46:48.140Z,15.53
2023-01-29T18:49:16.055Z,15.23
2023-01-29T18:51:44.034Z,14.53
2023-01-29T18:54:12.916Z,18.30
2023-01-29T18:57:13.295Z,18.00
2023-01-29T18:59:30.314Z,16.60
2023-01-29T19:01:58.363Z,15.67
2023-01-29T19:04:26.327Z,17.47
2023-01-29T19:06:54.226Z,15.93
2023-01-29T19:09:22.180Z,16.13
2023-01-29T19:11:51.511Z,17.90
2023-01-29T19:14:19.535Z,17.90
2023-01-29T19:16:47.456Z,17.80
2023-01-29T19:19:15.452Z,17.50
2023-01-29T19:21:43.410Z,17.27
2023-01-29T19:24:11.992Z,20.60
2023-01-29T19:26:39.980Z,19.60
2023-01-29T19:29:09.684Z,17.90
2023-01-29T19:31:37.639Z,17.90
2023-01-29T19:34:05.612Z,19.37
2023-01-29T19:36:33.533Z,16.17
2023-01-29T19:39:01.419Z,17.20
2023-01-29T19:41:29.429Z,20.67
2023-01-29T19:43:57.333Z,19.10
2023-01-29T19:46:26.655Z,18.20
2023-01-29T19:48:54.938Z,19.90
2023-01-29T19:51:23.412Z,18.20
2023-01-29T19:53:51.312Z,19.47
2023-01-29T19:56:20.048Z,19.10
2023-01-29T19:58:48.850Z,19.23
2023-01-29T20:01:18.355Z,18.90
2023-01-29T20:03:49.172Z,19.83
2023-01-29T20:06:18.446Z,17.60
2023-01-29T20:08:47.076Z,19.43
2023-01-29T20:11:15.611Z,19.83
2023-01-29T20:13:43.515Z,18.67
2023-01-29T20:16:11.477Z,19.03
2023-01-29T20:18:39.411Z,18.33
2023-01-29T20:21:10.340Z,18.30
2023-01-29T20:23:39.014Z,21.43
2023-01-29T20:26:07.349Z,20.43
2023-01-29T20:28:35.835Z,18.53
2023-01-29T20:31:04.181Z,19.13
2023-01-29T20:33:32.339Z,19.03
2023-01-29T20:36:01.889Z,18.70
2023-01-29T20:38:31.849Z,16.50
2023-01-29T20:41:04.468Z,16.40
2023-01-29T20:43:32.399Z,16.07
2023-01-29T20:46:00.584Z,17.50
2023-01-29T20:48:28.560Z,20.50
2023-01-29T20:50:56.747Z,16.87
2023-01-29T20:53:24.665Z,18.20
2023-01-29T20:55:54.091Z,18.10
2023-01-29T20:58:22.480Z,17.20
2023-01-29T21:00:50.384Z,19.27
2023-01-29T21:03:18.286Z,19.10
2023-01-29T21:05:46.445Z,19.80
2023-01-29T21:08:14.381Z,17.70
2023-01-29T21:10:43.368Z,20.80
2023-01-29T21:13:12.864Z,16.93
2023-01-29T21:15:40.832Z,19.93
2023-01-29T21:18:08.729Z,20.07
2023-01-29T21:20:36.684Z,17.80
2023-01-29T21:23:06.955Z,17.13
2023-01-29T21:25:35.319Z,18.10
2023-01-29T21:28:04.421Z,18.73
2023-01-29T21:30:34.308Z,18.67
2023-01-29T21:33:02.200Z,16.00
2023-01-29T21:35:30.154Z,14.07
2023-01-29T21:37:58.160Z,16.40
2023-01-29T21:40:26.259Z,16.37
2023-01-29T21:43:11.527Z,15.70
2023-01-29T21:45:41.530Z,17.40
2023-01-29T21:48:10.385Z,16.97
2023-01-29T21:50:38.850Z,16.37
2023-01-29T21:53:07.055Z,16.03
2023-01-29T21:55:35.004Z,16.53
2023-01-29T21:58:02.967Z,15.70
2023-01-29T22:00:31.017Z,17.20
2023-01-29T22:03:00.516Z,16.93
2023-01-29T22:05:29.189Z,18.43
2023-01-29T22:07:57.479Z,15.87
2023-01-29T22:10:25.533Z,16.43
2023-01-29T22:12:55.553Z,15.20
2023-01-29T22:15:24.093Z,16.37
2023-01-29T22:17:52.228Z,14.83
2023-01-29T22:20:29.557Z,17.47
2023-01-29T22:22:59.482Z,16.73
2023-01-29T22:25:27.930Z,16.97
2023-01-29T22:27:55.851Z,16.83
2023-01-29T22:30:24.275Z,14.70
2023-01-29T22:32:52.250Z,14.83
2023-01-29T22:35:21.567Z,15.23
2023-01-29T22:37:49.471Z,13.30
2023-01-29T22:40:17.817Z,15.50
2023-01-29T22:42:45.929Z,13.53
2023-01-29T22:45:13.831Z,14.10
2023-01-29T22:47:41.764Z,15.27
2023-01-29T22:50:10.843Z,15.10
2023-01-29T22:52:42.643Z,15.60
2023-01-29T22:55:12.227Z,15.57
2023-01-29T22:57:40.575Z,15.90
2023-01-29T23:00:11.549Z,14.77
2023-01-29T23:02:39.513Z,16.17
2023-01-29T23:05:08.446Z,16.73
2023-01-29T23:07:36.474Z,14.40
2023-01-29T23:10:07.237Z,15.27
2023-01-29T23:12:35.199Z,13.97
2023-01-29T23:15:03.134Z,14.50
2023-01-29T23:17:31.143Z,15.37
2023-01-29T23:19:59.121Z,14.73
2023-01-29T23:22:27.076Z,14.87
2023-01-29T23:24:55.035Z,15.13
2023-01-29T23:27:23.308Z,14.20
2023-01-29T23:29:51.229Z,14.93
2023-01-29T23:32:20.483Z,13.77
2023-01-29T23:34:48.516Z,15.40
2023-01-29T23:37:16.422Z,15.57
2023-01-29T23:39:44.308Z,15.20
2023-01-29T23:42:12.490Z,16.07
2023-01-29T23:44:41.825Z,16.53
2023-01-29T23:47:10.219Z,16.97
2023-01-29T23:49:38.451Z,15.37
2023-01-29T23:52:06.707Z,15.03
2023-01-29T23:54:34.617Z,15.33
2023-01-29T23:57:02.595Z,15.17
2023-01-29T23:59:30.574Z,16.20
